createdAt,value
2018-12-05T00:01:28.915Z,5.20
2018-12-05T00:04:06.888Z,5.20
2018-12-05T00:06:43.499Z,5.20
2018-12-05T00:09:19.575Z,5.10
2018-12-05T00:11:55.311Z,5.10
2018-12-05T00:14:30.598Z,5.20
2018-12-05T00:17:07.288Z,5.10
2018-12-05T00:19:43.982Z,5.10
2018-12-05T00:22:21.024Z,5.10
2018-12-05T00:24:56.853Z,5.00
2018-12-05T00:27:32.864Z,5.00
2018-12-05T00:30:09.420Z,4.90
2018-12-05T00:32:45.357Z,4.90
2018-12-05T00:35:21.200Z,4.90
2018-12-05T00:37:57.082Z,5.00
2018-12-05T00:40:33.074Z,5.00
2018-12-05T00:43:09.900Z,5.00
2018-12-05T00:45:46.634Z,4.90
2018-12-05T00:48:25.787Z,4.90
2018-12-05T00:51:02.441Z,4.90
2018-12-05T00:53:38.222Z,4.70
2018-12-05T00:56:14.247Z,4.70
2018-12-05T00:58:49.959Z,4.70
2018-12-05T01:01:25.798Z,4.60
2018-12-05T01:04:01.758Z,4.50
2018-12-05T01:06:37.615Z,4.50
2018-12-05T01:09:13.415Z,4.60
2018-12-05T01:11:49.432Z,4.60
2018-12-05T01:14:25.591Z,4.70
2018-12-05T01:17:02.102Z,4.60
2018-12-05T01:19:38.020Z,4.60
2018-12-05T01:22:13.768Z,4.60
2018-12-05T01:24:49.603Z,4.60
2018-12-05T01:27:25.364Z,4.50
2018-12-05T01:30:01.219Z,4.50
2018-12-05T01:32:37.018Z,4.50
2018-12-05T01:35:13.103Z,4.50
2018-12-05T01:37:49.670Z,4.50
2018-12-05T01:40:25.528Z,4.60
2018-12-05T01:43:01.267Z,4.60
2018-12-05T01:45:37.008Z,4.50
2018-12-05T01:48:12.833Z,4.50
2018-12-05T01:50:49.466Z,4.40
2018-12-05T01:53:25.146Z,4.40
2018-12-05T01:56:01.179Z,4.40
2018-12-05T01:58:37.937Z,4.30
2018-12-05T02:01:14.890Z,4.30
2018-12-05T02:03:50.666Z,4.30
2018-12-05T02:06:26.599Z,4.20
2018-12-05T02:09:02.941Z,4.20
2018-12-05T02:11:39.218Z,4.20
2018-12-05T02:14:15.163Z,4.20
2018-12-05T02:16:51.277Z,4.20
2018-12-05T02:19:27.839Z,4.20
2018-12-05T02:22:03.670Z,4.10
2018-12-05T02:24:39.484Z,4.00
2018-12-05T02:27:15.402Z,4.00
2018-12-05T02:29:56.678Z,3.90
2018-12-05T02:32:33.015Z,3.90
2018-12-05T02:35:08.768Z,3.80
2018-12-05T02:37:45.711Z,3.70
2018-12-05T02:40:21.631Z,3.80
2018-12-05T02:42:58.162Z,3.80
2018-12-05T02:45:35.982Z,3.80
2018-12-05T02:48:13.947Z,3.80
2018-12-05T02:50:49.941Z,3.90
2018-12-05T02:53:25.749Z,3.90
2018-12-05T02:56:00.793Z,3.90
2018-12-05T02:58:36.900Z,3.90
2018-12-05T03:01:12.798Z,3.90
2018-12-05T03:03:49.568Z,3.90
2018-12-05T03:06:25.273Z,3.70
2018-12-05T03:09:01.370Z,3.70
2018-12-05T03:11:39.324Z,3.70
2018-12-05T03:14:15.238Z,3.70
2018-12-05T03:16:52.093Z,3.70
2018-12-05T03:19:30.845Z,3.70
2018-12-05T03:22:07.146Z,3.70
2018-12-05T03:24:43.600Z,3.70
2018-12-05T03:27:19.612Z,3.60
2018-12-05T03:29:56.176Z,3.50
2018-12-05T03:32:34.196Z,3.40
2018-12-05T03:35:10.859Z,3.40
2018-12-05T03:37:46.837Z,3.40
2018-12-05T03:40:23.288Z,3.50
2018-12-05T03:42:59.257Z,3.50
2018-12-05T03:45:34.895Z,3.40
2018-12-05T03:48:10.707Z,3.50
2018-12-05T03:50:46.887Z,3.50
2018-12-05T03:53:23.668Z,3.40
2018-12-05T03:56:02.420Z,3.50
2018-12-05T03:58:38.227Z,3.30
2018-12-05T04:01:14.185Z,3.40
2018-12-05T04:03:49.890Z,3.30
2018-12-05T04:06:25.879Z,3.40
2018-12-05T04:09:01.479Z,3.50
2018-12-05T04:11:39.896Z,3.50
2018-12-05T04:14:16.425Z,3.50
2018-12-05T04:16:52.499Z,3.40
2018-12-05T04:19:29.495Z,3.30
2018-12-05T04:22:06.779Z,3.20
2018-12-05T04:24:43.191Z,3.20
2018-12-05T04:27:20.233Z,3.30
2018-12-05T04:29:56.948Z,3.30
2018-12-05T04:32:32.871Z,3.40
2018-12-05T04:35:08.600Z,3.40
2018-12-05T04:37:44.443Z,3.40
2018-12-05T04:40:20.452Z,3.30
2018-12-05T04:42:57.112Z,3.30
2018-12-05T04:45:35.301Z,3.30
2018-12-05T04:48:11.270Z,3.30
2018-12-05T04:50:46.287Z,3.30
2018-12-05T04:53:23.314Z,3.30
2018-12-05T04:56:00.112Z,3.30
2018-12-05T04:58:37.056Z,3.30
2018-12-05T05:01:12.958Z,3.30
2018-12-05T05:03:48.609Z,3.30
2018-12-05T05:06:25.418Z,3.40
2018-12-05T05:09:01.257Z,3.40
2018-12-05T05:11:38.082Z,3.40
2018-12-05T05:14:13.896Z,3.40
2018-12-05T05:16:49.093Z,3.40
2018-12-05T05:19:25.847Z,3.40
2018-12-05T05:22:01.772Z,3.40
2018-12-05T05:24:37.566Z,3.40
2018-12-05T05:27:15.695Z,3.50
2018-12-05T05:29:52.517Z,3.50
2018-12-05T05:32:28.619Z,3.40
2018-12-05T05:35:05.443Z,3.40
2018-12-05T05:37:41.199Z,3.40
2018-12-05T05:40:17.432Z,3.40
2018-12-05T05:42:53.971Z,3.40
2018-12-05T05:45:29.799Z,3.40
2018-12-05T05:48:05.860Z,3.40
2018-12-05T05:50:41.643Z,3.50
2018-12-05T05:53:17.400Z,3.50
2018-12-05T05:55:53.425Z,3.50
2018-12-05T05:58:30.121Z,3.50
2018-12-05T06:01:06.108Z,3.50
2018-12-05T06:03:41.940Z,3.50
2018-12-05T06:06:17.943Z,3.60
2018-12-05T06:08:53.681Z,3.60
2018-12-05T06:11:30.104Z,3.60
2018-12-05T06:14:06.674Z,3.60
2018-12-05T06:16:41.745Z,3.70
2018-12-05T06:19:17.419Z,3.70
2018-12-05T06:21:53.232Z,3.70
2018-12-05T06:24:30.833Z,3.70
2018-12-05T06:27:07.142Z,3.70
2018-12-05T06:29:43.927Z,3.70
2018-12-05T06:32:21.294Z,3.80
2018-12-05T06:34:58.099Z,3.80
2018-12-05T06:37:34.723Z,3.80
2018-12-05T06:40:10.478Z,3.90
2018-12-05T06:42:46.469Z,3.90
2018-12-05T06:45:22.480Z,3.90
2018-12-05T06:47:58.462Z,3.90
2018-12-05T06:50:35.105Z,3.90
2018-12-05T06:53:10.774Z,3.90
2018-12-05T06:55:46.480Z,4.00
2018-12-05T06:58:22.292Z,3.90
2018-12-05T07:00:58.266Z,4.00
2018-12-05T07:03:34.290Z,4.00
2018-12-05T07:06:10.251Z,4.00
2018-12-05T07:08:46.863Z,4.10
2018-12-05T07:11:22.834Z,4.00
2018-12-05T07:13:57.743Z,4.00
2018-12-05T07:16:33.592Z,4.10
2018-12-05T07:19:09.545Z,4.10
2018-12-05T07:21:45.310Z,4.20
2018-12-05T07:24:22.479Z,4.20
2018-12-05T07:26:58.405Z,4.20
2018-12-05T07:29:34.260Z,4.30
2018-12-05T07:32:09.948Z,4.30
2018-12-05T07:34:45.861Z,4.30
2018-12-05T07:37:21.534Z,4.30
2018-12-05T07:39:57.796Z,4.40
2018-12-05T07:42:34.376Z,4.40
2018-12-05T07:45:10.129Z,4.40
2018-12-05T07:47:46.014Z,4.40
2018-12-05T07:50:21.743Z,4.50
2018-12-05T07:52:59.434Z,4.50
2018-12-05T07:55:35.198Z,4.60
2018-12-05T07:58:11.188Z,4.60
2018-12-05T08:00:46.881Z,4.60
2018-12-05T08:03:24.147Z,4.60
2018-12-05T08:06:00.692Z,4.60
2018-12-05T08:08:36.474Z,4.60
2018-12-05T08:11:12.343Z,4.60
2018-12-05T08:13:48.203Z,4.60
2018-12-05T08:16:24.220Z,4.70
2018-12-05T08:19:00.641Z,4.70
2018-12-05T08:21:36.422Z,4.70
2018-12-05T08:24:12.401Z,4.70
2018-12-05T08:26:48.251Z,4.70
2018-12-05T08:29:24.203Z,4.70
2018-12-05T08:31:59.967Z,4.80
2018-12-05T08:34:36.118Z,4.80
2018-12-05T08:37:12.629Z,4.80
2018-12-05T08:39:48.520Z,4.90
2018-12-05T08:42:24.459Z,4.90
2018-12-05T08:45:00.790Z,4.90
2018-12-05T08:47:37.059Z,4.90
2018-12-05T08:50:12.992Z,4.90
2018-12-05T08:52:48.744Z,5.00
2018-12-05T08:55:26.562Z,5.00
2018-12-05T08:58:03.326Z,5.00
2018-12-05T09:00:39.542Z,5.00
2018-12-05T09:03:16.072Z,5.10
2018-12-05T09:05:53.108Z,5.10
2018-12-05T09:08:28.771Z,5.10
2018-12-05T09:11:04.959Z,5.20
2018-12-05T09:13:41.463Z,5.30
2018-12-05T09:16:17.378Z,5.30
2018-12-05T09:18:53.184Z,5.40
2018-12-05T09:21:30.118Z,5.40
2018-12-05T09:24:06.283Z,5.40
2018-12-05T09:26:43.017Z,5.40
2018-12-05T09:29:17.999Z,5.40
2018-12-05T09:31:53.150Z,5.40
2018-12-05T09:34:30.086Z,5.40
2018-12-05T09:37:06.778Z,5.50
2018-12-05T09:39:42.915Z,5.50
2018-12-05T09:42:19.570Z,5.40
2018-12-05T09:44:55.566Z,5.50
2018-12-05T09:47:31.280Z,5.50
2018-12-05T09:50:07.521Z,5.50
2018-12-05T09:52:43.845Z,5.50
2018-12-05T09:55:20.235Z,5.60
2018-12-05T09:57:57.419Z,5.60
2018-12-05T10:00:34.082Z,5.60
2018-12-05T10:03:10.629Z,5.60
2018-12-05T10:05:47.547Z,5.60
2018-12-05T10:08:24.087Z,5.60
2018-12-05T10:11:00.714Z,5.60
2018-12-05T10:13:37.179Z,5.60
2018-12-05T10:16:12.811Z,5.70
2018-12-05T10:18:47.623Z,5.70
2018-12-05T10:21:23.433Z,5.80
2018-12-05T10:24:00.163Z,5.70
2018-12-05T10:26:36.150Z,5.80
2018-12-05T10:29:12.971Z,5.70
2018-12-05T10:38:45.679Z,5.80
2018-12-05T10:41:23.547Z,5.80
2018-12-05T10:43:59.310Z,5.90
2018-12-05T10:46:34.375Z,5.90
2018-12-05T10:49:09.427Z,5.90
2018-12-05T10:51:45.355Z,5.90
2018-12-05T10:54:21.075Z,5.90
2018-12-05T10:56:56.839Z,6.00
2018-12-05T10:59:32.514Z,6.00
2018-12-05T11:02:13.782Z,6.10
2018-12-05T11:04:54.881Z,6.10
2018-12-05T11:08:37.212Z,6.20
2018-12-05T11:11:18.516Z,6.10
2018-12-05T11:14:01.505Z,6.10
2018-12-05T11:16:43.207Z,6.00
2018-12-05T11:19:25.107Z,6.00
2018-12-05T11:22:06.831Z,6.00
2018-12-05T11:24:43.355Z,6.00
2018-12-05T11:27:19.555Z,6.00
2018-12-05T11:29:55.404Z,6.00
2018-12-05T11:32:31.433Z,6.00
2018-12-05T11:35:06.551Z,6.00
2018-12-05T11:37:42.220Z,5.90
2018-12-05T11:40:18.407Z,5.90
2018-12-05T11:42:55.846Z,5.90
2018-12-05T11:45:31.712Z,5.90
2018-12-05T11:48:07.632Z,5.90
2018-12-05T11:50:43.522Z,5.80
2018-12-05T11:53:19.210Z,5.80
2018-12-05T11:55:55.130Z,5.80
2018-12-05T11:58:31.107Z,5.80
2018-12-05T12:01:07.864Z,5.80
2018-12-05T12:03:43.777Z,5.80
2018-12-05T12:06:20.998Z,5.80
2018-12-05T12:08:56.777Z,5.80
2018-12-05T12:11:32.417Z,5.80
2018-12-05T12:14:08.395Z,5.80
2018-12-05T12:16:44.052Z,5.80
2018-12-05T12:19:20.023Z,5.80
2018-12-05T12:21:55.874Z,5.80
2018-12-05T12:24:34.809Z,5.90
2018-12-05T12:27:09.705Z,5.90
2018-12-05T12:29:46.363Z,5.80
2018-12-05T12:32:22.155Z,5.80
2018-12-05T12:34:58.098Z,5.80
2018-12-05T12:37:33.373Z,5.80
2018-12-05T12:40:10.056Z,5.80
2018-12-05T12:42:46.733Z,5.80
2018-12-05T12:46:51.711Z,5.80
2018-12-05T12:49:27.650Z,5.90
2018-12-05T12:52:03.696Z,5.80
2018-12-05T12:54:39.290Z,5.80
2018-12-05T12:57:15.257Z,5.80
2018-12-05T12:59:51.135Z,5.90
2018-12-05T13:02:26.895Z,5.80
2018-12-05T13:05:02.665Z,5.80
2018-12-05T13:07:38.476Z,5.80
2018-12-05T13:10:14.391Z,5.80
2018-12-05T13:12:54.335Z,5.80
2018-12-05T13:15:30.725Z,5.80
2018-12-05T13:18:06.642Z,5.80
2018-12-05T13:20:42.731Z,5.80
2018-12-05T13:23:18.479Z,5.80
2018-12-05T13:25:54.400Z,5.80
2018-12-05T13:28:30.154Z,5.90
2018-12-05T13:31:06.028Z,5.90
2018-12-05T13:33:41.866Z,5.90
2018-12-05T13:36:17.804Z,5.90
2018-12-05T13:38:53.423Z,5.90
2018-12-05T13:41:29.520Z,5.90
2018-12-05T13:44:05.296Z,5.90
2018-12-05T13:46:41.223Z,5.90
2018-12-05T13:49:17.126Z,5.90
2018-12-05T13:51:53.098Z,5.90
2018-12-05T13:54:28.833Z,5.90
2018-12-05T13:57:04.861Z,5.90
2018-12-05T13:59:40.706Z,5.90
2018-12-05T14:02:16.492Z,5.80
2018-12-05T14:04:52.338Z,5.90
2018-12-05T14:07:28.295Z,5.90
2018-12-05T14:10:04.921Z,5.80
2018-12-05T14:12:41.123Z,5.70
2018-12-05T14:15:17.124Z,5.70
2018-12-05T14:18:01.034Z,5.80
2018-12-05T14:20:31.367Z,5.80
2018-12-05T14:23:07.392Z,5.70
2018-12-05T14:25:43.363Z,5.70
2018-12-05T14:28:19.902Z,5.70
2018-12-05T14:30:55.799Z,5.70
2018-12-05T14:33:32.790Z,5.70
2018-12-05T14:36:09.519Z,5.70
2018-12-05T14:38:46.183Z,5.70
2018-12-05T14:41:21.948Z,5.70
2018-12-05T14:43:58.126Z,5.70
2018-12-05T14:46:34.762Z,5.70
2018-12-05T14:49:10.745Z,5.70
2018-12-05T14:51:47.332Z,5.70
2018-12-05T14:54:23.166Z,5.70
2018-12-05T14:56:59.150Z,5.80
2018-12-05T14:59:34.977Z,5.80
2018-12-05T15:02:11.291Z,5.80
2018-12-05T15:04:47.890Z,5.80
2018-12-05T15:07:23.878Z,5.80
2018-12-05T15:10:00.881Z,5.80
2018-12-05T15:12:36.590Z,5.80
2018-12-05T15:15:16.375Z,5.80
2018-12-05T15:17:52.184Z,5.80
2018-12-05T15:20:28.245Z,5.80
2018-12-05T15:23:04.114Z,5.80
2018-12-05T15:25:39.862Z,5.80
2018-12-05T15:28:15.571Z,5.90
2018-12-05T15:30:51.299Z,5.90
2018-12-05T15:33:27.169Z,6.00
2018-12-05T15:36:03.086Z,6.00
2018-12-05T15:38:39.021Z,6.00
2018-12-05T15:41:15.104Z,6.00
2018-12-05T15:43:51.066Z,6.00
2018-12-05T15:46:26.990Z,6.00
2018-12-05T15:49:02.745Z,6.10
2018-12-05T15:51:38.622Z,6.00
2018-12-05T15:54:14.790Z,6.10
2018-12-05T15:56:50.699Z,6.10
2018-12-05T15:59:26.445Z,6.10
2018-12-05T16:02:04.180Z,6.10
2018-12-05T16:04:41.840Z,6.10
2018-12-05T16:07:17.935Z,6.10
2018-12-05T16:09:53.827Z,6.10
2018-12-05T16:12:30.388Z,6.10
2018-12-05T16:15:07.715Z,6.10
2018-12-05T16:17:44.226Z,6.20
2018-12-05T16:20:20.185Z,6.20
2018-12-05T16:22:56.094Z,6.20
2018-12-05T16:25:31.763Z,6.20
2018-12-05T16:28:07.569Z,6.20
2018-12-05T16:30:43.447Z,6.20
2018-12-05T16:33:19.341Z,6.30
2018-12-05T16:35:55.446Z,6.30
2018-12-05T16:38:31.189Z,6.30
2018-12-05T16:41:07.232Z,6.30
2018-12-05T16:43:43.233Z,6.30
2018-12-05T16:46:19.734Z,6.40
2018-12-05T16:48:55.563Z,6.40
2018-12-05T16:51:31.452Z,6.40
2018-12-05T16:54:07.278Z,6.40
2018-12-05T16:56:43.004Z,6.40
2018-12-05T16:59:18.861Z,6.40
2018-12-05T17:01:54.647Z,6.50
2018-12-05T17:04:31.440Z,6.40
2018-12-05T17:07:06.871Z,6.40
2018-12-05T17:09:42.851Z,6.50
2018-12-05T17:12:19.039Z,6.50
2018-12-05T17:14:54.855Z,6.50
2018-12-05T17:17:30.736Z,6.50
2018-12-05T17:20:07.504Z,6.50
2018-12-05T17:22:44.188Z,6.50
2018-12-05T17:25:20.428Z,6.60
2018-12-05T17:27:56.759Z,6.60
2018-12-05T17:30:32.654Z,6.60
2018-12-05T17:33:08.348Z,6.60
2018-12-05T17:35:44.052Z,6.60
2018-12-05T17:38:19.862Z,6.70
2018-12-05T17:40:56.074Z,6.70
2018-12-05T17:43:31.971Z,6.70
2018-12-05T17:46:08.670Z,6.80
2018-12-05T17:48:44.567Z,6.80
2018-12-05T17:51:20.435Z,6.80
2018-12-05T17:53:57.379Z,6.80
2018-12-05T17:56:35.048Z,6.90
2018-12-05T17:59:11.973Z,6.90
2018-12-05T18:01:47.862Z,6.90
2018-12-05T18:04:23.972Z,6.90
2018-12-05T18:06:59.895Z,7.00
2018-12-05T18:09:36.699Z,7.00
2018-12-05T18:12:13.482Z,7.00
2018-12-05T18:14:49.203Z,7.00
2018-12-05T18:17:25.832Z,7.00
2018-12-05T18:20:02.070Z,7.00
2018-12-05T18:22:38.898Z,7.10
2018-12-05T18:25:14.568Z,7.10
2018-12-05T18:27:50.359Z,7.10
2018-12-05T18:30:26.633Z,7.10
2018-12-05T18:33:03.262Z,7.10
2018-12-05T18:35:39.846Z,7.20
2018-12-05T18:38:16.951Z,7.20
2018-12-05T18:40:52.651Z,7.20
2018-12-05T18:43:28.707Z,7.20
2018-12-05T18:46:04.600Z,7.20
2018-12-05T18:48:40.199Z,7.20
2018-12-05T18:51:15.950Z,7.20
2018-12-05T18:53:51.758Z,7.20
2018-12-05T18:56:28.547Z,7.20
2018-12-05T18:59:04.509Z,7.20
2018-12-05T19:01:40.242Z,7.20
2018-12-05T19:04:16.018Z,7.20
2018-12-05T19:06:51.932Z,7.20
2018-12-05T19:09:27.619Z,7.20
2018-12-05T19:12:03.371Z,7.20
2018-12-05T19:14:44.315Z,7.20
2018-12-05T19:17:21.166Z,7.20
2018-12-05T19:19:58.331Z,7.30
2018-12-05T19:22:35.016Z,7.30
2018-12-05T19:25:10.980Z,7.30
2018-12-05T19:27:48.077Z,7.30
2018-12-05T19:30:24.667Z,7.30
2018-12-05T19:33:01.510Z,7.30
2018-12-05T19:35:37.542Z,7.40
2018-12-05T19:38:14.231Z,7.40
2018-12-05T19:40:50.191Z,7.40
2018-12-05T19:43:26.046Z,7.40
2018-12-05T19:46:02.943Z,7.40
2018-12-05T19:48:39.910Z,7.40
2018-12-05T19:51:15.470Z,7.40
2018-12-05T19:53:51.134Z,7.40
2018-12-05T19:56:27.060Z,7.40
2018-12-05T19:59:02.860Z,7.50
2018-12-05T20:01:38.744Z,7.50
2018-12-05T20:04:14.803Z,7.50
2018-12-05T20:06:50.512Z,7.50
2018-12-05T20:09:26.296Z,7.50
2018-12-05T20:12:02.210Z,7.50
2018-12-05T20:14:37.103Z,7.60
2018-12-05T20:17:12.758Z,7.60
2018-12-05T20:19:49.947Z,7.60
2018-12-05T20:22:25.611Z,7.60
2018-12-05T20:25:01.386Z,7.60
2018-12-05T20:27:38.092Z,7.60
2018-12-05T20:30:13.075Z,7.60
2018-12-05T20:32:48.786Z,7.60
2018-12-05T20:35:24.775Z,7.60
2018-12-05T20:38:00.838Z,7.60
2018-12-05T20:40:36.703Z,7.70
2018-12-05T20:43:13.266Z,7.70
2018-12-05T20:45:49.556Z,7.70
2018-12-05T20:48:25.547Z,7.70
2018-12-05T20:51:02.160Z,7.70
2018-12-05T20:53:38.157Z,7.70
2018-12-05T20:56:14.067Z,7.70
2018-12-05T20:58:49.955Z,7.80
2018-12-05T21:01:26.854Z,7.80
2018-12-05T21:04:03.155Z,7.80
2018-12-05T21:06:38.949Z,7.80
2018-12-05T21:09:14.774Z,7.80
2018-12-05T21:11:51.516Z,7.90
2018-12-05T21:14:27.313Z,7.90
2018-12-05T21:17:03.174Z,7.90
2018-12-05T21:19:38.958Z,7.90
2018-12-05T21:22:14.820Z,7.90
2018-12-05T21:24:52.762Z,8.00
2018-12-05T21:27:29.428Z,8.00
2018-12-05T21:30:06.335Z,8.00
2018-12-05T21:32:43.614Z,8.00
2018-12-05T21:35:19.759Z,8.00
2018-12-05T21:37:55.375Z,8.00
2018-12-05T21:40:30.315Z,8.00
2018-12-05T21:43:06.959Z,8.10
2018-12-05T21:45:42.782Z,8.10
2018-12-05T21:48:18.830Z,8.10
2018-12-05T21:50:54.508Z,8.10
2018-12-05T21:53:30.422Z,8.10
2018-12-05T21:56:06.353Z,8.10
2018-12-05T21:58:42.734Z,8.10
2018-12-05T22:01:19.255Z,8.20
2018-12-05T22:03:54.954Z,8.20
2018-12-05T22:06:30.594Z,8.20
2018-12-05T22:09:09.447Z,8.20
2018-12-05T22:11:45.527Z,8.20
2018-12-05T22:14:22.162Z,8.20
2018-12-05T22:16:58.165Z,8.20
2018-12-05T22:19:34.131Z,8.20
2018-12-05T22:22:09.827Z,8.30
2018-12-05T22:24:45.506Z,8.30
2018-12-05T22:27:21.223Z,8.30
2018-12-05T22:29:57.223Z,8.30
2018-12-05T22:32:33.187Z,8.30
2018-12-05T22:35:09.055Z,8.40
2018-12-05T22:37:44.884Z,8.40
2018-12-05T22:40:20.659Z,8.40
2018-12-05T22:42:56.464Z,8.40
2018-12-05T22:45:32.322Z,8.40
2018-12-05T22:48:08.125Z,8.50
2018-12-05T22:50:43.924Z,8.50
2018-12-05T22:53:19.713Z,8.50
2018-12-05T22:55:55.764Z,8.50
2018-12-05T22:58:32.346Z,8.40
2018-12-05T23:01:08.476Z,8.50
2018-12-05T23:03:45.485Z,8.50
2018-12-05T23:06:23.282Z,8.50
2018-12-05T23:09:01.134Z,8.50
2018-12-05T23:11:39.938Z,8.50
2018-12-05T23:14:15.750Z,8.50
2018-12-05T23:16:51.883Z,8.50
2018-12-05T23:19:29.318Z,8.60
2018-12-05T23:22:05.636Z,8.50
2018-12-05T23:24:42.150Z,8.60
2018-12-05T23:27:17.953Z,8.60
2018-12-05T23:29:53.697Z,8.60
2018-12-05T23:32:30.447Z,8.60
2018-12-05T23:35:06.481Z,8.60
2018-12-05T23:37:42.183Z,8.60
2018-12-05T23:40:18.292Z,8.60
2018-12-05T23:42:54.240Z,8.60
2018-12-05T23:45:31.002Z,8.70
2018-12-05T23:48:06.978Z,8.60
2018-12-05T23:50:43.251Z,8.70
2018-12-05T23:53:19.922Z,8.70
2018-12-05T23:55:56.082Z,8.70
2018-12-05T23:58:31.978Z,8.70
